createdAt,value
2022-10-12T00:02:52.854Z,101567.84
2022-10-12T00:06:03.110Z,101566.09
2022-10-12T00:09:06.208Z,101565.25
2022-10-12T00:12:08.738Z,101568.34
2022-10-12T00:15:12.872Z,101570.94
2022-10-12T00:18:15.341Z,101575.00
2022-10-12T00:21:20.677Z,101571.56
2022-10-12T00:24:23.174Z,101576.75
2022-10-12T00:27:25.660Z,101581.97
2022-10-12T00:30:29.523Z,101569.66
2022-10-12T00:33:33.436Z,101569.44
2022-10-12T00:36:36.570Z,101564.91
2022-10-12T00:39:39.364Z,101573.28
2022-10-12T00:42:41.830Z,101578.19
2022-10-12T00:45:45.767Z,101579.22
2022-10-12T00:48:53.610Z,101580.34
2022-10-12T00:52:00.270Z,101573.97
2022-10-12T00:55:03.720Z,101575.47
2022-10-12T00:58:08.299Z,101574.97
2022-10-12T01:01:12.358Z,101580.03
2022-10-12T01:04:15.020Z,101578.78
2022-10-12T01:07:17.612Z,101577.38
2022-10-12T01:10:20.815Z,101584.13
2022-10-12T01:13:23.315Z,101579.25
2022-10-12T01:16:33.392Z,101582.31
2022-10-12T01:20:10.207Z,101575.97
2022-10-12T01:23:58.373Z,101575.75
2022-10-12T01:27:25.161Z,101580.44
2022-10-12T01:30:34.379Z,101583.78
2022-10-12T01:33:39.971Z,101582.72
2022-10-12T01:36:46.899Z,101578.75
2022-10-12T01:39:54.206Z,101576.53
2022-10-12T01:42:58.658Z,101576.28
2022-10-12T01:46:24.213Z,101572.44
2022-10-12T01:49:30.545Z,101571.03
2022-10-12T01:52:40.392Z,101566.19
2022-10-12T01:55:50.656Z,101573.03
2022-10-12T01:59:02.474Z,101573.38
2022-10-12T02:02:17.698Z,101571.00
2022-10-12T02:05:27.496Z,101571.22
2022-10-12T02:08:35.078Z,101569.41
2022-10-12T02:11:42.986Z,101575.97
2022-10-12T02:14:48.114Z,101570.06
2022-10-12T02:17:53.566Z,101566.53
2022-10-12T02:21:00.461Z,101570.47
2022-10-12T02:24:07.357Z,101566.72
2022-10-12T02:27:12.393Z,101565.44
2022-10-12T02:30:15.005Z,101566.84
2022-10-12T02:33:25.774Z,101558.94
2022-10-12T02:36:35.315Z,101555.31
2022-10-12T02:39:43.277Z,101566.22
2022-10-12T02:43:09.955Z,101559.56
2022-10-12T02:46:14.692Z,101561.31
2022-10-12T02:49:19.417Z,101569.50
2022-10-12T02:52:22.373Z,101568.22
2022-10-12T02:55:24.822Z,101562.00
2022-10-12T02:58:27.278Z,101555.03
2022-10-12T03:01:29.798Z,101557.84
2022-10-12T03:04:33.672Z,101557.63
2022-10-12T03:07:36.495Z,101560.94
2022-10-12T03:10:39.235Z,101557.88
2022-10-12T03:13:41.673Z,101556.94
2022-10-12T03:16:46.488Z,101564.44
2022-10-12T03:19:50.250Z,101563.00
2022-10-12T03:22:52.830Z,101552.72
2022-10-12T03:25:55.275Z,101557.09
2022-10-12T03:28:57.829Z,101549.72
2022-10-12T03:32:00.325Z,101551.09
2022-10-12T03:35:04.504Z,101548.09
2022-10-12T03:38:07.071Z,101556.53
2022-10-12T03:41:09.504Z,101558.50
2022-10-12T03:44:11.955Z,101552.16
2022-10-12T03:47:14.385Z,101553.22
2022-10-12T03:50:18.264Z,101557.22
2022-10-12T03:53:20.864Z,101560.00
2022-10-12T03:56:23.293Z,101557.13
2022-10-12T03:59:25.769Z,101554.66
2022-10-12T04:02:28.370Z,101554.13
2022-10-12T04:05:33.111Z,101564.34
2022-10-12T04:08:35.652Z,101566.97
2022-10-12T04:11:38.159Z,101561.00
2022-10-12T04:14:40.794Z,101566.97
2022-10-12T04:17:43.258Z,101566.34
2022-10-12T04:20:49.950Z,101563.84
2022-10-12T04:23:52.541Z,101560.84
2022-10-12T04:26:54.981Z,101565.88
2022-10-12T04:29:57.426Z,101571.63
2022-10-12T04:33:00.212Z,101568.09
2022-10-12T04:36:04.114Z,101564.25
2022-10-12T04:39:06.579Z,101566.41
2022-10-12T04:42:09.163Z,101560.94
2022-10-12T04:45:11.897Z,101564.44
2022-10-12T04:48:14.331Z,101564.41
2022-10-12T04:51:18.101Z,101566.69
2022-10-12T04:54:20.544Z,101557.03
2022-10-12T04:57:23.021Z,101554.88
2022-10-12T05:00:25.452Z,101566.91
2022-10-12T05:03:27.926Z,101569.50
2022-10-12T05:06:31.833Z,101572.31
2022-10-12T05:09:34.320Z,101577.13
2022-10-12T05:12:37.022Z,101580.34
2022-10-12T05:15:39.662Z,101582.47
2022-10-12T05:18:42.118Z,101575.19
2022-10-12T05:21:45.881Z,101576.69
2022-10-12T05:24:53.674Z,101586.94
2022-10-12T05:27:57.097Z,101574.94
2022-10-12T05:30:59.523Z,101583.19
2022-10-12T05:34:01.961Z,101581.69
2022-10-12T05:37:05.890Z,101585.56
2022-10-12T05:40:09.121Z,101584.28
2022-10-12T05:43:11.609Z,101588.38
2022-10-12T05:46:14.669Z,101579.25
2022-10-12T05:49:17.186Z,101577.22
2022-10-12T05:52:21.017Z,101588.94
2022-10-12T05:55:23.459Z,101588.88
2022-10-12T05:58:27.003Z,101587.16
2022-10-12T06:01:29.460Z,101581.63
2022-10-12T06:04:31.948Z,101589.66
2022-10-12T06:07:35.748Z,101589.75
2022-10-12T06:10:38.899Z,101590.16
2022-10-12T06:13:41.402Z,101597.56
2022-10-12T06:16:43.879Z,101594.59
2022-10-12T06:19:46.359Z,101605.56
2022-10-12T06:22:50.125Z,101608.22
2022-10-12T06:25:53.253Z,101607.69
2022-10-12T06:28:55.809Z,101608.78
2022-10-12T06:31:58.349Z,101612.50
2022-10-12T06:35:00.772Z,101604.69
2022-10-12T06:38:04.896Z,101611.75
2022-10-12T06:41:07.359Z,101611.88
2022-10-12T06:44:09.938Z,101611.41
2022-10-12T06:47:12.351Z,101616.38
2022-10-12T06:50:14.846Z,101606.59
2022-10-12T06:53:19.443Z,101615.72
2022-10-12T06:56:21.921Z,101614.41
2022-10-12T06:59:24.865Z,101615.97
2022-10-12T07:02:27.394Z,101615.13
2022-10-12T07:05:30.235Z,101615.06
2022-10-12T07:08:34.065Z,101631.44
2022-10-12T07:11:36.560Z,101625.81
2022-10-12T07:14:39.004Z,101619.72
2022-10-12T07:17:41.499Z,101625.56
2022-10-12T07:20:43.984Z,101629.41
2022-10-12T07:23:47.742Z,101632.56
2022-10-12T07:26:50.488Z,101628.06
2022-10-12T07:29:52.971Z,101626.72
2022-10-12T07:32:55.452Z,101619.22
2022-10-12T07:36:13.200Z,101632.41
2022-10-12T07:39:18.245Z,101624.81
2022-10-12T07:42:20.646Z,101626.91
2022-10-12T07:45:23.861Z,101627.69
2022-10-12T07:48:26.312Z,101632.28
2022-10-12T07:51:28.756Z,101631.19
2022-10-12T07:54:32.935Z,101642.16
2022-10-12T07:57:35.543Z,101637.38
2022-10-12T08:00:38.037Z,101643.03
2022-10-12T08:03:40.600Z,101638.88
2022-10-12T08:06:44.551Z,101652.91
2022-10-12T08:09:49.457Z,101644.75
2022-10-12T08:12:52.343Z,101645.91
2022-10-12T08:15:54.857Z,101644.91
2022-10-12T08:18:57.292Z,101642.34
2022-10-12T08:21:59.721Z,101642.44
2022-10-12T08:25:05.414Z,101646.00
2022-10-12T08:28:07.946Z,101648.13
2022-10-12T08:31:12.198Z,101645.34
2022-10-12T08:34:14.854Z,101646.03
2022-10-12T08:37:17.281Z,101643.00
2022-10-12T08:40:29.807Z,101651.47
2022-10-12T08:43:45.180Z,101646.06
2022-10-12T08:46:48.355Z,101643.22
2022-10-12T08:49:51.907Z,101644.81
2022-10-12T08:52:59.176Z,101643.34
2022-10-12T08:56:02.986Z,101650.28
2022-10-12T08:59:05.469Z,101649.16
2022-10-12T09:02:26.370Z,101654.94
2022-10-12T09:05:34.724Z,101651.81
2022-10-12T09:08:51.214Z,101655.78
2022-10-12T09:12:05.219Z,101654.16
2022-10-12T09:15:15.680Z,101652.81
2022-10-12T09:18:22.365Z,101649.84
2022-10-12T09:21:27.961Z,101650.16
2022-10-12T09:24:35.911Z,101663.50
2022-10-12T09:27:45.091Z,101656.72
2022-10-12T09:31:02.842Z,101658.25
2022-10-12T09:34:07.356Z,101665.88
2022-10-12T09:37:18.159Z,101655.41
2022-10-12T09:40:23.973Z,101656.28
2022-10-12T09:43:28.090Z,101657.50
2022-10-12T09:46:40.205Z,101658.38
2022-10-12T09:49:43.420Z,101649.13
2022-10-12T09:52:46.489Z,101649.50
2022-10-12T09:55:58.874Z,101655.81
2022-10-12T09:59:05.135Z,101653.69
2022-10-12T10:02:16.624Z,101648.41
2022-10-12T10:05:25.971Z,101648.94
2022-10-12T10:08:28.472Z,101651.75
2022-10-12T10:11:31.999Z,101646.09
2022-10-12T10:14:36.911Z,101645.78
2022-10-12T10:17:39.923Z,101639.13
2022-10-12T10:20:45.819Z,101639.16
2022-10-12T10:23:52.841Z,101639.81
2022-10-12T10:26:57.825Z,101639.72
2022-10-12T10:30:40.573Z,101642.00
2022-10-12T10:33:45.059Z,101644.75
2022-10-12T10:36:49.559Z,101644.63
2022-10-12T10:39:55.555Z,101650.72
2022-10-12T10:43:03.728Z,101645.00
2022-10-12T10:46:08.391Z,101648.09
2022-10-12T10:49:26.056Z,101644.00
2022-10-12T10:52:31.694Z,101639.34
2022-10-12T10:55:45.847Z,101636.63
2022-10-12T10:58:51.992Z,101624.16
2022-10-12T11:01:58.580Z,101629.78
2022-10-12T11:05:08.870Z,101616.53
2022-10-12T11:08:16.854Z,101616.88
2022-10-12T11:11:23.201Z,101615.13
2022-10-12T11:14:32.035Z,101605.91
2022-10-12T11:17:38.985Z,101609.44
2022-10-12T11:20:49.636Z,101611.72
2022-10-12T11:23:55.623Z,101602.31
2022-10-12T11:27:04.094Z,101600.84
2022-10-12T11:30:14.429Z,101599.53
2022-10-12T11:33:24.145Z,101600.75
2022-10-12T11:36:30.689Z,101599.28
2022-10-12T11:39:39.170Z,101591.53
2022-10-12T11:42:43.729Z,101585.44
2022-10-12T11:45:50.466Z,101582.22
2022-10-12T11:49:00.371Z,101585.84
2022-10-12T11:52:06.938Z,101586.66
2022-10-12T11:55:28.565Z,101592.81
2022-10-12T11:58:55.971Z,101593.47
2022-10-12T12:02:04.777Z,101582.47
2022-10-12T12:05:16.310Z,101582.84
2022-10-12T12:08:24.136Z,101575.25
2022-10-12T12:11:28.800Z,101574.34
2022-10-12T12:14:48.887Z,101560.63
2022-10-12T12:18:14.380Z,101560.63
2022-10-12T12:21:18.136Z,101562.00
2022-10-12T12:24:20.916Z,101554.66
2022-10-12T12:27:29.749Z,101551.09
2022-10-12T12:30:37.672Z,101544.47
2022-10-12T12:33:43.421Z,101556.31
2022-10-12T12:36:50.977Z,101555.41
2022-10-12T12:39:56.150Z,101556.72
2022-10-12T12:43:22.403Z,101549.25
2022-10-12T12:46:47.308Z,101545.88
2022-10-12T12:49:53.652Z,101541.50
2022-10-12T12:53:05.489Z,101540.72
2022-10-12T12:56:17.489Z,101533.38
2022-10-12T12:59:46.889Z,101537.41
2022-10-12T13:03:20.137Z,101524.16
2022-10-12T13:07:06.982Z,101526.91
2022-10-12T13:10:33.114Z,101513.31
2022-10-12T13:13:54.693Z,101520.81
2022-10-12T13:20:38.396Z,101506.13
2022-10-12T13:23:41.343Z,101507.59
2022-10-12T13:26:47.701Z,101508.81
2022-10-12T13:29:56.267Z,101512.16
2022-10-12T13:33:04.540Z,101507.63
2022-10-12T13:36:10.210Z,101515.91
2022-10-12T13:39:16.430Z,101513.66
2022-10-12T13:42:27.603Z,101505.31
2022-10-12T13:45:30.037Z,101504.13
2022-10-12T13:48:59.242Z,101500.56
2022-10-12T13:51:57.637Z,101496.63
2022-10-12T13:55:01.149Z,101500.84
2022-10-12T13:58:05.223Z,101495.91
2022-10-12T14:01:10.817Z,101485.94
2022-10-12T14:04:13.339Z,101482.19
2022-10-12T14:07:20.856Z,101492.47
2022-10-12T14:10:27.202Z,101485.28
2022-10-12T14:13:33.112Z,101483.34
2022-10-12T14:16:35.587Z,101480.69
2022-10-12T14:19:45.123Z,101486.56
2022-10-12T14:22:49.707Z,101473.16
2022-10-12T14:25:54.209Z,101471.97
2022-10-12T14:29:00.285Z,101457.50
2022-10-12T14:32:04.681Z,101465.72
2022-10-12T14:35:26.069Z,101462.88
2022-10-12T14:38:39.073Z,101470.06
2022-10-12T14:41:49.953Z,101465.28
2022-10-12T14:44:54.286Z,101470.63
2022-10-12T14:47:57.429Z,101456.16
2022-10-12T14:50:59.928Z,101452.16
2022-10-12T14:54:04.173Z,101454.06
2022-10-12T14:57:14.177Z,101456.84
2022-10-12T15:00:20.437Z,101444.91
2022-10-12T15:03:22.903Z,101438.03
2022-10-12T15:06:25.424Z,101433.38
2022-10-12T15:09:27.899Z,101434.25
2022-10-12T15:12:32.979Z,101423.63
2022-10-12T15:15:42.190Z,101420.94
2022-10-12T15:18:44.634Z,101425.91
2022-10-12T15:21:47.778Z,101423.34
2022-10-12T15:24:52.117Z,101425.28
2022-10-12T15:27:54.607Z,101428.63
2022-10-12T15:34:21.528Z,101418.06
2022-10-12T15:37:27.714Z,101401.63
2022-10-12T15:40:32.446Z,101417.88
2022-10-12T15:43:36.944Z,101415.22
2022-10-12T15:46:44.628Z,101411.03
2022-10-12T15:49:47.055Z,101403.59
2022-10-12T15:52:50.067Z,101408.03
2022-10-12T15:55:53.077Z,101407.16
2022-10-12T15:58:55.577Z,101394.91
2022-10-12T16:01:59.409Z,101401.56
2022-10-12T16:05:01.931Z,101398.00
2022-10-12T16:08:06.862Z,101396.88
2022-10-12T16:11:12.681Z,101393.81
2022-10-12T16:14:15.589Z,101398.53
2022-10-12T16:17:19.364Z,101384.19
2022-10-12T16:20:22.665Z,101373.31
2022-10-12T16:23:29.658Z,101383.06
2022-10-12T16:26:32.142Z,101374.16
2022-10-12T16:29:34.605Z,101370.00
2022-10-12T16:32:38.405Z,101365.00
2022-10-12T16:35:41.054Z,101370.03
2022-10-12T16:38:44.323Z,101362.41
2022-10-12T16:41:46.787Z,101361.22
2022-10-12T16:44:49.489Z,101358.16
2022-10-12T16:47:54.063Z,101350.81
2022-10-12T16:50:56.513Z,101352.78
2022-10-12T16:53:58.935Z,101355.06
2022-10-12T16:57:01.389Z,101349.53
2022-10-12T17:00:04.929Z,101353.19
2022-10-12T17:03:09.295Z,101354.50
2022-10-12T17:06:11.960Z,101345.16
2022-10-12T17:09:14.378Z,101346.88
2022-10-12T17:12:17.246Z,101356.28
2022-10-12T17:15:20.222Z,101352.00
2022-10-12T17:18:23.990Z,101355.09
2022-10-12T17:21:26.491Z,101353.72
2022-10-12T17:24:31.136Z,101353.38
2022-10-12T17:27:33.577Z,101346.03
2022-10-12T17:30:38.338Z,101351.47
2022-10-12T17:33:42.170Z,101351.91
2022-10-12T17:36:44.698Z,101346.63
2022-10-12T17:39:48.310Z,101344.38
2022-10-12T17:42:50.737Z,101351.69
2022-10-12T17:45:53.190Z,101347.00
2022-10-12T17:48:59.208Z,101355.44
2022-10-12T17:52:01.656Z,101352.34
2022-10-12T17:55:04.444Z,101355.44
2022-10-12T17:58:06.906Z,101354.78
2022-10-12T18:01:11.481Z,101359.63
2022-10-12T18:04:15.329Z,101354.91
2022-10-12T18:07:18.116Z,101344.59
2022-10-12T18:10:23.459Z,101342.25
2022-10-12T18:13:29.027Z,101338.03
2022-10-12T18:16:34.092Z,101333.81
2022-10-12T18:19:38.002Z,101337.09
2022-10-12T18:22:40.634Z,101330.97
2022-10-12T18:25:44.001Z,101329.34
2022-10-12T18:28:46.650Z,101320.88
2022-10-12T18:31:49.233Z,101318.19
2022-10-12T18:34:53.616Z,101323.66
2022-10-12T18:37:56.470Z,101324.19
2022-10-12T18:41:03.735Z,101315.91
2022-10-12T18:44:06.213Z,101313.56
2022-10-12T18:47:08.817Z,101315.75
2022-10-12T18:50:12.687Z,101319.75
2022-10-12T18:53:15.277Z,101313.84
2022-10-12T18:56:18.267Z,101316.34
2022-10-12T18:59:20.805Z,101321.84
2022-10-12T19:02:23.527Z,101316.78
2022-10-12T19:05:27.350Z,101316.63
2022-10-12T19:08:29.925Z,101320.50
2022-10-12T19:11:32.965Z,101317.28
2022-10-12T19:14:35.498Z,101311.09
2022-10-12T19:17:37.941Z,101313.38
2022-10-12T19:20:41.728Z,101313.09
2022-10-12T19:23:45.075Z,101293.47
2022-10-12T19:26:48.692Z,101298.16
2022-10-12T19:29:51.406Z,101300.03
2022-10-12T19:32:53.917Z,101294.78
2022-10-12T19:35:57.781Z,101296.34
2022-10-12T19:39:02.599Z,101291.66
2022-10-12T19:42:05.352Z,101291.22
2022-10-12T19:45:09.023Z,101293.19
2022-10-12T19:48:11.538Z,101296.78
2022-10-12T19:51:15.533Z,101296.44
2022-10-12T19:54:18.098Z,101295.34
2022-10-12T19:57:20.605Z,101294.09
2022-10-12T20:00:23.110Z,101290.25
2022-10-12T20:03:25.627Z,101292.38
2022-10-12T20:06:31.019Z,101297.97
2022-10-12T20:09:33.579Z,101293.16
2022-10-12T20:12:36.162Z,101291.75
2022-10-12T20:15:38.812Z,101281.75
2022-10-12T20:18:42.144Z,101288.84
2022-10-12T20:21:46.010Z,101286.97
2022-10-12T20:24:49.067Z,101287.72
2022-10-12T20:27:51.539Z,101284.91
2022-10-12T20:30:59.174Z,101273.34
2022-10-12T20:34:01.674Z,101274.13
2022-10-12T20:37:05.553Z,101271.09
2022-10-12T20:40:09.217Z,101264.16
2022-10-12T20:43:11.778Z,101265.09
2022-10-12T20:46:16.130Z,101280.63
2022-10-12T20:49:18.662Z,101269.28
2022-10-12T20:52:22.614Z,101278.41
2022-10-12T20:55:25.221Z,101265.78
2022-10-12T20:58:28.409Z,101266.81
2022-10-12T21:01:30.887Z,101254.03
2022-10-12T21:04:38.160Z,101251.38
2022-10-12T21:07:42.265Z,101253.09
2022-10-12T21:10:47.212Z,101245.28
2022-10-12T21:13:50.113Z,101243.06
2022-10-12T21:16:52.695Z,101242.13
2022-10-12T21:19:55.183Z,101244.78
2022-10-12T21:22:58.969Z,101242.88
2022-10-12T21:26:09.918Z,101250.09
2022-10-12T21:29:12.669Z,101237.41
2022-10-12T21:32:15.646Z,101238.41
2022-10-12T21:35:18.294Z,101239.31
2022-10-12T21:38:22.299Z,101250.34
2022-10-12T21:41:26.234Z,101251.91
2022-10-12T21:44:28.732Z,101249.41
2022-10-12T21:47:31.230Z,101247.25
2022-10-12T21:50:34.780Z,101250.59
2022-10-12T21:53:40.038Z,101242.03
2022-10-12T21:56:42.961Z,101247.88
2022-10-12T21:59:45.497Z,101244.88
2022-10-12T22:02:49.403Z,101250.19
2022-10-12T22:05:52.001Z,101251.91
2022-10-12T22:08:57.475Z,101249.50
2022-10-12T22:11:59.939Z,101240.41
2022-10-12T22:15:02.603Z,101246.16
2022-10-12T22:18:05.302Z,101240.06
2022-10-12T22:21:11.170Z,101230.34
2022-10-12T22:24:15.331Z,101231.66
2022-10-12T22:27:17.781Z,101226.00
2022-10-12T22:30:20.239Z,101225.75
2022-10-12T22:33:22.957Z,101235.47
2022-10-12T22:36:25.896Z,101235.09
2022-10-12T22:39:29.726Z,101232.81
2022-10-12T22:42:32.306Z,101229.16
2022-10-12T22:45:34.757Z,101226.16
2022-10-12T22:48:38.125Z,101206.78
2022-10-12T22:51:40.633Z,101211.31
2022-10-12T22:54:44.622Z,101213.38
2022-10-12T22:57:47.077Z,101206.19
2022-10-12T23:00:49.553Z,101206.53
2022-10-12T23:03:52.470Z,101199.44
2022-10-12T23:06:54.904Z,101198.06
2022-10-12T23:09:58.858Z,101196.94
2022-10-12T23:13:01.261Z,101198.91
2022-10-12T23:16:04.785Z,101198.47
2022-10-12T23:19:07.351Z,101193.25
2022-10-12T23:22:09.771Z,101196.31
2022-10-12T23:25:13.595Z,101204.31
2022-10-12T23:28:16.050Z,101186.03
2022-10-12T23:31:20.705Z,101185.69
2022-10-12T23:34:23.154Z,101173.97
2022-10-12T23:37:25.874Z,101176.63
2022-10-12T23:40:29.974Z,101166.34
2022-10-12T23:43:33.044Z,101167.69
2022-10-12T23:46:35.641Z,101171.41
2022-10-12T23:49:38.246Z,101167.88
2022-10-12T23:52:40.707Z,101167.69
2022-10-12T23:55:44.661Z,101163.66
2022-10-12T23:58:47.137Z,101164.88
